Time;durP1;ratioP1;P1;durP2;ratioP2;P2;SDS_P1;SDS_P2;PMS_P1;PMS_P2;Temp;Humidity;BMP_temperature;BMP_pressure;BME280_temperature;BME280_humidity;BME280_pressure;Samples;Min_cycle;Max_cycle;Signal;HPM_P1;HPM_P2
2021/07/28 00:00:57;;;;;;;11.53;9.00;;;;;;;22.44;89.45;96140.41;4978579;28;20426;-55
2021/07/28 00:03:22;;;;;;;9.67;8.83;;;;;;;22.40;89.61;96133.28;4977215;28;20548;-58
2021/07/28 00:05:47;;;;;;;10.60;8.30;;;;;;;22.42;89.12;96131.88;4977518;28;20194;-58
2021/07/28 00:08:13;;;;;;;9.17;8.37;;;;;;;22.40;89.31;96130.59;4977556;28;20181;-58
2021/07/28 00:10:38;;;;;;;9.10;8.30;;;;;;;22.43;89.38;96128.09;4977292;28;20530;-59
2021/07/28 00:13:04;;;;;;;8.37;7.67;;;;;;;22.45;89.27;96123.22;4976914;28;20175;-59
2021/07/28 00:15:29;;;;;;;9.20;8.30;;;;;;;22.44;89.38;96127.03;4991298;28;20214;-56
2021/07/28 00:17:59;;;;;;;8.43;7.73;;;;;;;22.45;89.22;96119.75;4996695;28;20192;-59
2021/07/28 00:23:14;;;;;;;9.27;8.30;;;;;;;22.46;88.98;96122.13;4977415;28;20420;-58
2021/07/28 00:25:40;;;;;;;9.43;7.73;;;;;;;22.37;89.06;96131.22;4996643;28;20431;-58
2021/07/28 00:28:06;;;;;;;9.03;8.30;;;;;;;22.09;90.00;96137.78;4998891;28;20224;-55
2021/07/28 00:30:32;;;;;;;8.80;8.00;;;;;;;22.14;89.96;96143.03;4995876;28;20425;-55
2021/07/28 00:32:57;;;;;;;9.37;8.43;;;;;;;22.17;89.79;96134.38;4996198;28;20314;-56
2021/07/28 00:35:23;;;;;;;10.67;9.57;;;;;;;22.15;90.03;96133.91;4978326;28;20963;-58
2021/07/28 00:37:49;;;;;;;10.87;9.20;;;;;;;22.17;90.15;96148.56;4977104;28;20504;-56
2021/07/28 00:40:15;;;;;;;7.90;7.20;;;;;;;22.16;89.67;96143.50;4977218;28;20185;-58
2021/07/28 00:42:41;;;;;;;9.60;8.80;;;;;;;22.15;90.23;96142.72;4976684;28;20409;-60
2021/07/28 00:45:07;;;;;;;9.10;8.30;;;;;;;22.23;90.21;96146.56;4976573;28;20246;-59
2021/07/28 00:47:32;;;;;;;9.87;8.93;;;;;;;22.23;89.87;96149.25;4976083;28;20250;-55
2021/07/28 00:50:02;;;;;;;9.50;8.53;;;;;;;22.21;90.01;96148.75;4991901;28;20632;-56
2021/07/28 00:52:29;;;;;;;9.43;8.53;;;;;;;22.17;90.12;96145.91;4996315;28;20202;-55
2021/07/28 00:54:55;;;;;;;8.40;7.70;;;;;;;22.16;89.99;96136.25;4995455;28;20460;-59
2021/07/28 00:57:21;;;;;;;8.80;8.07;;;;;;;22.09;90.04;96143.94;4995992;28;20425;-59
2021/07/28 00:59:46;;;;;;;9.43;8.63;;;;;;;22.05;89.68;96147.53;4996049;28;20505;-58
2021/07/28 01:02:12;;;;;;;9.33;8.37;;;;;;;21.89;89.86;96141.72;4995991;28;20174;-60
2021/07/28 01:04:37;;;;;;;8.73;7.87;;;;;;;21.86;90.13;96145.00;4980033;28;20676;-55
2021/07/28 01:07:03;;;;;;;9.93;9.00;;;;;;;21.83;90.14;96142.16;4976367;28;20178;-56
2021/07/28 01:09:30;;;;;;;9.00;8.27;;;;;;;21.81;90.13;96136.31;4976335;28;20675;-55
2021/07/28 01:11:57;;;;;;;9.50;8.70;;;;;;;21.60;90.77;96135.13;4976211;28;20178;-56
2021/07/28 01:14:23;;;;;;;8.70;7.90;;;;;;;21.70;91.11;96141.06;4975753;28;20436;-59
2021/07/28 01:16:48;;;;;;;9.87;8.80;;;;;;;21.72;90.81;96156.81;4976338;28;20414;-59
2021/07/28 01:19:17;;;;;;;9.60;8.70;;;;;;;21.72;90.82;96154.13;4989735;28;20267;-58
2021/07/28 01:21:48;;;;;;;10.27;9.27;;;;;;;21.72;90.55;96149.59;4995503;28;20169;-55
2021/07/28 01:24:14;;;;;;;10.70;9.80;;;;;;;21.58;91.58;96140.78;4995314;28;20428;-58
2021/07/28 01:26:40;;;;;;;9.60;8.70;;;;;;;21.47;91.93;96145.56;4995503;28;20408;-56
2021/07/28 01:29:06;;;;;;;10.57;9.57;;;;;;;21.43;92.30;96151.81;5005686;28;20426;-55
2021/07/28 01:31:41;;;;;;;10.70;9.70;;;;;;;21.35;92.74;96157.84;5015050;28;20642;-55
2021/07/28 01:34:08;;;;;;;10.50;9.60;;;;;;;21.38;92.70;96149.22;4993402;28;20449;-58
2021/07/28 01:36:35;;;;;;;11.10;10.13;;;;;;;21.28;93.68;96144.09;4975990;28;20974;-59
2021/07/28 01:39:03;;;;;;;9.93;9.03;;;;;;;21.34;92.91;96146.34;4975850;28;20839;-58
2021/07/28 01:41:28;;;;;;;10.97;9.87;;;;;;;21.34;92.99;96140.25;4975880;28;20432;-55
2021/07/28 01:43:54;;;;;;;11.20;10.20;;;;;;;21.37;92.84;96137.75;4975325;28;20872;-55
2021/07/28 01:46:19;;;;;;;9.67;8.67;;;;;;;21.29;92.65;96130.41;4975509;28;20217;-58
2021/07/28 01:48:44;;;;;;;11.00;10.00;;;;;;;21.40;92.43;96131.81;4976574;28;20241;-55
2021/07/28 01:51:10;;;;;;;10.00;9.10;;;;;;;21.47;92.54;96136.72;4975653;28;20174;-55
2021/07/28 01:53:37;;;;;;;10.60;9.70;;;;;;;21.45;92.51;96133.59;4975053;28;20182;-55
2021/07/28 01:56:03;;;;;;;9.83;8.83;;;;;;;21.38;92.51;96128.63;4975513;28;20453;-55
2021/07/28 01:58:28;;;;;;;9.43;8.63;;;;;;;21.42;91.83;96129.63;4975392;28;20444;-56
2021/07/28 02:00:54;;;;;;;6.63;6.13;;;;;;;21.38;90.99;96131.31;4975399;28;20418;-56
2021/07/28 02:03:20;;;;;;;7.73;7.13;;;;;;;21.32;90.53;96132.50;4982336;28;20222;-55
2021/07/28 02:05:45;;;;;;;6.83;6.23;;;;;;;21.36;90.00;96132.72;4994750;28;20472;-58
2021/07/28 02:08:14;;;;;;;7.00;6.40;;;;;;;21.35;89.91;96129.25;4994843;28;20683;-55
2021/07/28 02:10:44;;;;;;;7.10;6.40;;;;;;;21.39;89.69;96129.44;4994736;28;20550;-59
2021/07/28 02:13:09;;;;;;;7.40;6.70;;;;;;;21.07;90.52;96126.88;4994083;28;20507;-57
2021/07/28 02:15:35;;;;;;;6.70;6.20;;;;;;;20.74;91.87;96118.13;4994339;28;20460;-58
2021/07/28 02:18:02;;;;;;;7.07;6.37;;;;;;;20.75;91.92;96114.38;4987203;28;20201;-56
2021/07/28 02:20:28;;;;;;;6.80;6.20;;;;;;;20.90;90.73;96106.06;4975119;28;20174;-55
2021/07/28 02:22:54;;;;;;;6.60;5.80;;;;;;;20.71;91.26;96117.94;4974724;28;20468;-56
2021/07/28 02:25:20;;;;;;;7.30;6.10;;;;;;;20.45;92.79;96126.38;4974952;28;20425;-55
2021/07/28 02:27:46;;;;;;;7.07;6.47;;;;;;;20.71;91.76;96120.59;4975116;28;20417;-56
2021/07/28 02:30:13;;;;;;;7.00;6.50;;;;;;;20.82;91.26;96119.31;5013514;28;20196;-55
2021/07/28 02:32:39;;;;;;;7.00;6.40;;;;;;;20.29;92.89;96126.94;5006522;28;20421;-59
2021/07/28 02:35:06;;;;;;;6.60;6.00;;;;;;;20.37;92.81;96134.28;4994155;28;20978;-55
2021/07/28 02:37:32;;;;;;;7.67;6.27;;;;;;;20.41;93.07;96130.75;4994432;28;20411;-55
2021/07/28 02:39:58;;;;;;;6.80;6.20;;;;;;;20.39;92.60;96121.44;4994365;28;20409;-58
2021/07/28 02:42:23;;;;;;;7.20;6.60;;;;;;;20.38;92.58;96115.28;4993456;28;20432;-59
2021/07/28 02:44:49;;;;;;;6.50;5.90;;;;;;;20.55;92.03;96117.41;4993719;28;20190;-58
2021/07/28 02:47:14;;;;;;;6.57;5.93;;;;;;;20.48;91.85;96120.47;4994074;28;20216;-55
2021/07/28 02:49:40;;;;;;;6.67;6.17;;;;;;;20.38;92.48;96127.88;4994067;28;20227;-55
2021/07/28 02:52:05;;;;;;;6.33;5.73;;;;;;;20.45;92.53;96120.25;4993997;28;20200;-58
2021/07/28 02:54:31;;;;;;;6.67;6.10;;;;;;;20.42;92.65;96112.81;4993716;28;20656;-55
2021/07/28 02:56:57;;;;;;;7.63;6.43;;;;;;;20.62;92.01;96111.69;4991537;28;20179;-58
2021/07/28 02:59:22;;;;;;;7.23;6.57;;;;;;;20.60;91.91;96113.88;4974944;28;20412;-58
2021/07/28 03:01:49;;;;;;;7.00;5.77;;;;;;;20.69;91.80;96114.75;4974606;28;20522;-55
2021/07/28 03:04:15;;;;;;;6.77;6.17;;;;;;;20.78;91.46;96110.31;4974103;28;20526;-58
2021/07/28 03:06:40;;;;;;;6.80;6.20;;;;;;;20.64;91.07;96114.84;4987010;28;20421;-55
2021/07/28 03:09:05;;;;;;;7.43;6.77;;;;;;;20.65;92.14;96113.75;4994097;28;20405;-55
2021/07/28 03:11:31;;;;;;;6.83;6.33;;;;;;;20.83;91.37;96107.53;4995473;28;20180;-57
2021/07/28 03:13:56;;;;;;;6.80;6.20;;;;;;;20.89;91.09;96104.47;4997405;28;20185;-58
2021/07/28 03:16:22;;;;;;;7.47;6.87;;;;;;;20.93;91.42;96105.47;4997768;28;20197;-58
2021/07/28 03:18:49;;;;;;;7.40;6.80;;;;;;;20.95;91.33;96107.84;4997906;28;20632;-58
2021/07/28 03:21:14;;;;;;;6.93;6.33;;;;;;;21.01;90.91;96101.34;4987445;28;20426;-55
2021/07/28 03:23:39;;;;;;;7.30;6.60;;;;;;;21.03;90.97;96105.31;4977810;28;20417;-56
2021/07/28 03:26:05;;;;;;;7.67;6.97;;;;;;;21.07;90.72;96100.16;4978321;28;20185;-56
2021/07/28 03:28:30;;;;;;;7.40;6.63;;;;;;;21.03;90.85;96104.50;4989535;28;20165;-58
2021/07/28 03:30:55;;;;;;;7.97;7.17;;;;;;;21.05;90.85;96105.00;5017208;28;20212;-56
2021/07/28 03:33:21;;;;;;;7.57;6.33;;;;;;;21.08;90.75;96104.41;5015471;28;20165;-58
2021/07/28 03:35:46;;;;;;;7.33;6.30;;;;;;;21.06;90.92;96102.03;5006810;28;20257;-59
2021/07/28 03:38:12;;;;;;;6.90;6.30;;;;;;;21.07;90.67;96106.28;4997420;28;20173;-56
2021/07/28 03:40:38;;;;;;;6.93;6.37;;;;;;;21.10;90.51;96107.56;4997298;28;20636;-59
2021/07/28 03:43:04;;;;;;;6.63;6.03;;;;;;;21.03;91.05;96120.56;4996823;28;20245;-59
2021/07/28 03:45:29;;;;;;;8.80;7.40;;;;;;;21.07;90.85;96119.66;4977629;28;20615;-60
2021/07/28 03:47:55;;;;;;;8.30;7.60;;;;;;;21.12;90.55;96121.44;4977855;28;20181;-56
2021/07/28 03:50:20;;;;;;;7.80;7.00;;;;;;;21.16;90.59;96125.88;4977815;28;20753;-57
2021/07/28 03:52:45;;;;;;;7.93;7.13;;;;;;;21.12;90.77;96111.53;4977539;28;20174;-58
2021/07/28 03:55:11;;;;;;;10.23;8.00;;;;;;;21.14;90.63;96112.00;4983574;28;20224;-57
2021/07/28 03:57:37;;;;;;;7.00;6.40;;;;;;;21.12;90.60;96124.91;4997280;28;20170;-56
2021/07/28 04:00:04;;;;;;;7.47;6.87;;;;;;;21.13;90.80;96120.34;4997267;28;20413;-56
2021/07/28 04:02:30;;;;;;;8.13;7.43;;;;;;;21.16;90.82;96127.78;4997042;28;20212;-55
2021/07/28 04:04:55;;;;;;;7.57;6.80;;;;;;;21.11;90.42;96133.19;4979301;28;20441;-58
2021/07/28 04:07:21;;;;;;;8.10;7.30;;;;;;;21.11;90.62;96125.97;4977498;28;20955;-58
2021/07/28 04:09:46;;;;;;;8.20;7.10;;;;;;;21.15;90.18;96124.31;4977378;28;20517;-57
2021/07/28 04:12:11;;;;;;;8.60;7.70;;;;;;;21.11;90.42;96125.19;4977737;28;20496;-55
2021/07/28 04:14:37;;;;;;;7.90;7.20;;;;;;;21.12;90.59;96122.25;4980293;28;20224;-59
2021/07/28 04:17:02;;;;;;;8.90;8.10;;;;;;;21.18;90.41;96129.03;4996722;28;20185;-58
2021/07/28 04:19:28;;;;;;;8.20;7.40;;;;;;;21.22;90.42;96123.88;4996738;28;20217;-56
2021/07/28 04:21:53;;;;;;;8.13;7.37;;;;;;;21.24;90.42;96113.69;4996609;28;20248;-55
2021/07/28 04:24:18;;;;;;;8.80;8.00;;;;;;;21.26;90.55;96115.00;4995022;28;20221;-56
2021/07/28 04:26:44;;;;;;;8.60;7.30;;;;;;;21.24;90.66;96135.06;4996429;28;20172;-56
2021/07/28 04:29:09;;;;;;;8.17;7.47;;;;;;;21.20;90.56;96139.44;5004352;28;20304;-56
2021/07/28 04:31:34;;;;;;;8.07;7.20;;;;;;;21.15;90.80;96137.66;4996643;28;20173;-56
2021/07/28 04:34:00;;;;;;;7.67;6.97;;;;;;;21.12;90.91;96129.47;4996102;28;20196;-56
2021/07/28 04:36:25;;;;;;;7.53;6.83;;;;;;;21.15;90.79;96123.50;4995122;28;20667;-55
2021/07/28 04:38:50;;;;;;;7.90;7.23;;;;;;;21.14;91.27;96127.28;4996290;28;20552;-55
2021/07/28 04:41:16;;;;;;;7.70;7.10;;;;;;;21.19;90.98;96119.16;4996453;28;20173;-55
2021/07/28 04:43:42;;;;;;;8.93;7.30;;;;;;;21.17;91.10;96121.31;4995495;28;20165;-56
2021/07/28 04:46:07;;;;;;;8.07;7.40;;;;;;;21.15;90.59;96137.66;4976577;28;20174;-56
2021/07/28 04:48:32;;;;;;;7.67;6.97;;;;;;;21.12;90.01;96132.94;4976905;28;20178;-55
2021/07/28 04:50:59;;;;;;;7.60;6.70;;;;;;;21.14;90.06;96108.56;4976742;28;20529;-56
2021/07/28 04:53:28;;;;;;;6.80;6.30;;;;;;;21.07;89.20;96090.25;4986547;28;20224;-55
2021/07/28 04:55:58;;;;;;;7.70;6.90;;;;;;;21.10;89.55;96094.22;4996085;28;20863;-59
2021/07/28 04:58:24;;;;;;;9.40;7.40;;;;;;;21.16;89.19;96119.75;4996386;28;20401;-58
2021/07/28 05:00:51;;;;;;;7.57;6.77;;;;;;;21.20;88.91;96123.41;4995956;28;20484;-58
2021/07/28 05:03:17;;;;;;;7.47;6.77;;;;;;;21.12;88.91;96135.59;4995604;28;20416;-55
2021/07/28 05:05:43;;;;;;;7.47;6.77;;;;;;;20.98;89.15;96139.31;4995937;28;20421;-58
2021/07/28 05:08:08;;;;;;;7.70;7.00;;;;;;;21.00;89.80;96124.59;4985414;28;20840;-58
2021/07/28 05:10:34;;;;;;;8.23;6.87;;;;;;;21.11;89.64;96136.66;4976453;28;20249;-56
2021/07/28 05:13:00;;;;;;;7.20;6.50;;;;;;;21.09;88.92;96135.38;4975843;28;20580;-56
2021/07/28 05:15:26;;;;;;;6.70;6.10;;;;;;;20.97;89.45;96137.72;4976110;28;20480;-55
2021/07/28 05:17:52;;;;;;;7.73;6.70;;;;;;;21.00;89.12;96134.47;4976182;28;20409;-58
2021/07/28 05:20:18;;;;;;;7.30;6.60;;;;;;;21.01;88.47;96131.53;4976132;28;20162;-55
2021/07/28 05:22:44;;;;;;;6.60;6.10;;;;;;;21.04;87.62;96132.81;4983661;28;20247;-56
2021/07/28 05:25:09;;;;;;;7.03;6.43;;;;;;;21.08;87.45;96144.50;4976160;28;20742;-58
2021/07/28 05:27:35;;;;;;;7.20;6.60;;;;;;;21.11;87.72;96143.88;4976142;28;20434;-56
2021/07/28 05:30:00;;;;;;;7.57;6.60;;;;;;;21.00;88.71;96145.16;5011667;28;20412;-56
2021/07/28 05:32:27;;;;;;;8.93;6.97;;;;;;;21.05;88.53;96151.22;5015140;28;20165;-55
2021/07/28 05:34:52;;;;;;;7.40;6.70;;;;;;;21.08;88.36;96141.81;5014008;28;20227;-56
2021/07/28 05:37:21;;;;;;;9.10;7.00;;;;;;;21.13;88.07;96147.06;5014743;28;20511;-57
2021/07/28 05:39:47;;;;;;;7.80;7.10;;;;;;;21.13;88.25;96139.03;4991759;28;20261;-56
2021/07/28 05:42:12;;;;;;;7.27;6.67;;;;;;;21.17;88.25;96143.50;4976101;28;20406;-55
2021/07/28 05:44:38;;;;;;;7.73;6.93;;;;;;;21.24;87.85;96138.56;4975309;28;20186;-56
2021/07/28 05:47:03;;;;;;;8.43;6.63;;;;;;;21.15;88.04;96148.34;4975587;28;20581;-55
2021/07/28 05:49:29;;;;;;;7.37;6.67;;;;;;;21.25;87.98;96150.03;4975468;28;20167;-56
2021/07/28 05:51:54;;;;;;;7.00;6.40;;;;;;;21.28;87.75;96149.44;4975484;28;20256;-59
2021/07/28 05:54:20;;;;;;;7.80;7.03;;;;;;;21.32;87.65;96150.44;4993318;28;20197;-56
2021/07/28 05:56:46;;;;;;;6.57;5.90;;;;;;;21.40;87.45;96149.72;4993542;28;20197;-58
2021/07/28 05:59:11;;;;;;;7.43;6.83;;;;;;;21.37;87.64;96142.31;4995183;28;20496;-56
2021/07/28 06:01:37;;;;;;;7.10;6.50;;;;;;;21.41;87.96;96144.06;4995032;28;20640;-58
2021/07/28 06:04:02;;;;;;;7.10;6.43;;;;;;;21.48;87.11;96141.00;4994269;28;20193;-59
2021/07/28 06:06:27;;;;;;;6.93;6.27;;;;;;;21.25;86.03;96142.78;4994935;28;20635;-58
2021/07/28 06:08:54;;;;;;;7.17;6.37;;;;;;;21.35;85.86;96145.28;4977659;28;20178;-56
2021/07/28 06:11:19;;;;;;;8.07;7.23;;;;;;;21.35;85.34;96144.47;4975178;28;20177;-56
2021/07/28 06:13:45;;;;;;;6.87;6.27;;;;;;;21.34;85.93;96142.91;4974700;28;20770;-58
2021/07/28 06:16:10;;;;;;;7.67;6.97;;;;;;;21.40;86.71;96141.69;4975115;28;20193;-58
2021/07/28 06:18:35;;;;;;;7.33;6.63;;;;;;;21.36;86.32;96140.72;4975196;28;20220;-56
2021/07/28 06:21:01;;;;;;;7.47;6.77;;;;;;;21.34;86.09;96146.34;4975023;28;20656;-57
2021/07/28 06:23:27;;;;;;;6.90;6.30;;;;;;;21.17;86.07;96156.06;4982409;28;20182;-56
2021/07/28 06:25:52;;;;;;;7.47;6.67;;;;;;;21.02;87.19;96172.38;4974858;28;20244;-58
2021/07/28 06:28:18;;;;;;;7.43;6.70;;;;;;;20.86;87.34;96173.72;4982980;28;20165;-59
2021/07/28 06:30:43;;;;;;;6.33;5.73;;;;;;;20.87;87.77;96167.31;5014098;28;20259;-58
2021/07/28 06:33:08;;;;;;;7.17;6.53;;;;;;;21.02;87.70;96162.50;5013639;28;20176;-59
2021/07/28 06:35:34;;;;;;;6.57;5.97;;;;;;;20.67;89.58;96181.84;5013865;28;20525;-58
2021/07/28 06:37:59;;;;;;;6.50;6.00;;;;;;;20.59;90.16;96181.69;5007760;28;20172;-55
2021/07/28 06:40:24;;;;;;;6.27;5.67;;;;;;;20.60;90.54;96178.72;4994176;28;20651;-58
2021/07/28 06:42:50;;;;;;;7.43;6.83;;;;;;;20.58;90.48;96180.13;4993917;28;20572;-56
2021/07/28 06:45:15;;;;;;;7.53;6.70;;;;;;;20.65;91.12;96159.16;4993568;28;20190;-58
2021/07/28 06:47:41;;;;;;;9.13;8.10;;;;;;;20.68;90.48;96145.22;4978106;28;20212;-59
2021/07/28 06:50:07;;;;;;;7.07;6.40;;;;;;;20.76;89.96;96145.34;4974879;28;20174;-56
2021/07/28 06:52:32;;;;;;;10.03;7.23;;;;;;;20.49;90.87;96164.75;4974773;28;20657;-58
2021/07/28 06:54:57;;;;;;;7.20;6.50;;;;;;;20.41;91.66;96164.63;4974160;28;20201;-58
2021/07/28 06:57:22;;;;;;;7.70;7.00;;;;;;;20.25;92.99;96166.78;4974597;28;20162;-56
2021/07/28 06:59:48;;;;;;;7.63;6.80;;;;;;;20.22;93.17;96164.66;4974724;28;20656;-59
2021/07/28 07:02:13;;;;;;;7.80;7.07;;;;;;;20.23;92.49;96174.28;4986740;28;20178;-59
2021/07/28 07:04:39;;;;;;;7.87;7.20;;;;;;;20.10;93.85;96177.66;4993467;28;20197;-59
2021/07/28 07:07:04;;;;;;;8.60;7.30;;;;;;;19.94;94.24;96188.81;4994047;28;20268;-56
2021/07/28 07:09:29;;;;;;;7.17;6.50;;;;;;;19.96;94.67;96192.00;4993851;28;20176;-57
2021/07/28 07:11:55;;;;;;;9.10;6.90;;;;;;;19.83;95.28;96190.03;4993848;28;20181;-58
2021/07/28 07:14:21;;;;;;;8.03;7.33;;;;;;;19.95;95.00;96174.38;4993413;28;20671;-56
2021/07/28 07:16:47;;;;;;;8.10;7.30;;;;;;;19.90;94.91;96177.94;4981592;28;20672;-59
2021/07/28 07:19:12;;;;;;;8.47;7.67;;;;;;;19.92;94.98;96193.66;4974543;28;20420;-57
2021/07/28 07:21:37;;;;;;;8.90;8.00;;;;;;;19.86;94.17;96200.94;4974317;28;20183;-57
2021/07/28 07:24:03;;;;;;;7.63;6.90;;;;;;;20.03;93.39;96197.75;4974120;28;20198;-58
2021/07/28 07:26:29;;;;;;;8.03;7.23;;;;;;;19.71;94.95;96200.34;4985871;28;20212;-58
2021/07/28 07:28:54;;;;;;;10.37;7.90;;;;;;;19.59;95.25;96199.97;5013105;28;20537;-59
2021/07/28 07:31:20;;;;;;;10.20;9.30;;;;;;;19.72;94.49;96193.94;4993948;28;20185;-56
2021/07/28 07:33:45;;;;;;;9.40;8.00;;;;;;;19.69;95.74;96205.19;4995311;28;20212;-59
2021/07/28 07:36:14;;;;;;;8.53;7.73;;;;;;;19.74;95.32;96216.56;4974338;28;20330;-58
2021/07/28 07:38:40;;;;;;;9.83;7.13;;;;;;;19.61;96.44;96209.25;4974471;28;20174;-59
2021/07/28 07:41:06;;;;;;;9.90;7.87;;;;;;;19.69;95.34;96208.63;4974525;28;20413;-57
2021/07/28 07:43:32;;;;;;;8.47;7.67;;;;;;;19.68;96.01;96217.72;4983873;28;20174;-59
2021/07/28 07:45:57;;;;;;;9.17;8.27;;;;;;;19.68;95.50;96212.38;5009307;28;20450;-56
2021/07/28 07:48:23;;;;;;;8.87;8.00;;;;;;;19.67;95.34;96215.34;5013171;28;20181;-57
2021/07/28 07:50:49;;;;;;;9.97;7.50;;;;;;;19.74;96.05;96213.91;5013008;28;20599;-58
2021/07/28 07:53:14;;;;;;;8.80;7.87;;;;;;;19.67;97.13;96210.81;5012794;28;20173;-59
2021/07/28 07:55:40;;;;;;;8.80;8.00;;;;;;;19.78;96.73;96222.13;5013003;28;20482;-56
2021/07/28 07:58:05;;;;;;;7.77;7.17;;;;;;;19.74;96.14;96224.56;5003980;28;20189;-58
2021/07/28 08:00:31;;;;;;;8.80;7.63;;;;;;;19.69;96.31;96227.31;4996295;28;20181;-59
2021/07/28 08:02:56;;;;;;;10.03;9.03;;;;;;;19.80;96.00;96228.72;4996606;28;20177;-62
2021/07/28 08:05:21;;;;;;;9.43;8.30;;;;;;;19.97;95.39;96230.91;4996826;28;20192;-63
2021/07/28 08:07:47;;;;;;;11.90;8.30;;;;;;;19.98;95.20;96232.53;4996770;28;20177;-59
2021/07/28 08:10:13;;;;;;;8.30;7.30;;;;;;;20.00;95.61;96220.47;4996833;28;20652;-62
2021/07/28 08:12:38;;;;;;;8.27;7.43;;;;;;;19.89;96.00;96220.91;4989133;28;20182;-69
2021/07/28 08:15:04;;;;;;;8.33;7.53;;;;;;;19.94;95.07;96237.63;4974541;28;20471;-60
2021/07/28 08:17:29;;;;;;;9.23;8.33;;;;;;;19.91;94.86;96232.09;4973804;28;20178;-63
2021/07/28 08:19:56;;;;;;;7.50;6.90;;;;;;;19.91;95.10;96227.53;5000133;28;20577;-67
2021/07/28 08:22:22;;;;;;;8.87;7.97;;;;;;;19.92;95.30;96228.31;5012854;28;20180;-62
2021/07/28 08:24:47;;;;;;;8.90;8.10;;;;;;;20.12;95.10;96223.50;5012381;28;20454;-68
2021/07/28 08:27:13;;;;;;;8.70;7.57;;;;;;;19.87;94.45;96225.72;5005478;28;20547;-62
2021/07/28 08:29:38;;;;;;;8.83;8.03;;;;;;;19.67;95.73;96216.13;4993126;28;20205;-66
2021/07/28 08:32:04;;;;;;;8.20;7.50;;;;;;;19.70;96.25;96210.22;4993135;28;20199;-66
2021/07/28 08:34:29;;;;;;;7.87;7.03;;;;;;;19.70;94.99;96212.88;4990651;28;20282;-66
2021/07/28 08:36:54;;;;;;;8.03;7.23;;;;;;;19.58;95.11;96217.84;4992777;28;20208;-65
2021/07/28 08:39:20;;;;;;;8.50;7.67;;;;;;;19.69;94.53;96215.84;4992242;28;20181;-60
2021/07/28 08:41:47;;;;;;;8.20;7.40;;;;;;;19.59;95.03;96207.94;4992184;28;20182;-61
2021/07/28 08:44:18;;;;;;;8.70;7.90;;;;;;;19.78;95.13;96209.59;4984722;28;20212;-62
2021/07/28 08:46:44;;;;;;;8.77;7.33;;;;;;;19.90;95.01;96204.63;4992829;28;20528;-64
2021/07/28 08:49:12;;;;;;;8.20;7.50;;;;;;;19.93;94.79;96201.34;4992739;28;20416;-63
2021/07/28 08:51:39;;;;;;;8.00;7.30;;;;;;;19.93;94.54;96195.25;4998780;28;20470;-64
2021/07/28 08:54:04;;;;;;;7.77;7.07;;;;;;;20.06;94.15;96199.84;5011817;28;20439;-64
2021/07/28 08:56:30;;;;;;;7.70;7.10;;;;;;;19.98;93.75;96203.97;5011714;28;20471;-64
2021/07/28 08:58:55;;;;;;;7.33;6.73;;;;;;;20.16;93.51;96197.84;4992045;28;20177;-65
2021/07/28 09:01:21;;;;;;;7.80;7.17;;;;;;;20.11;92.70;96197.13;4994813;28;20190;-62
2021/07/28 09:03:46;;;;;;;8.40;7.60;;;;;;;20.31;92.67;96191.47;5011045;28;20176;-65
2021/07/28 09:06:32;;;;;;;7.03;6.33;;;;;;;20.17;91.47;96180.75;5012044;28;20179;-63
2021/07/28 09:09:02;;;;;;;8.63;7.80;;;;;;;20.31;91.38;96184.28;5010932;28;20240;-63
2021/07/28 09:11:28;;;;;;;7.20;6.50;;;;;;;20.14;90.35;96188.53;5009470;28;20422;-63
2021/07/28 09:13:56;;;;;;;7.40;6.20;;;;;;;20.35;89.83;96181.81;4986256;28;20460;-63
2021/07/28 09:16:21;;;;;;;8.80;6.13;;;;;;;20.49;89.57;96190.66;4975101;28;20733;-68
2021/07/28 09:18:49;;;;;;;6.90;6.30;;;;;;;20.35;88.72;96190.63;4980163;28;20428;-66
2021/07/28 09:21:21;;;;;;;7.87;7.10;;;;;;;20.20;90.29;96195.41;4992188;28;20177;-67
2021/07/28 09:23:49;;;;;;;6.83;6.23;;;;;;;20.24;89.76;96196.41;4992563;28;20424;-65
2021/07/28 09:26:34;;;;;;;8.43;6.53;;;;;;;20.45;89.71;96195.00;5011086;28;20420;-66
2021/07/28 09:29:13;;;;;;;6.33;5.73;;;;;;;20.47;89.02;96206.19;5011508;28;21026;-65
2021/07/28 09:31:45;;;;;;;9.57;6.33;;;;;;;20.41;89.04;96205.47;5011415;28;20419;-63
2021/07/28 09:34:21;;;;;;;8.13;6.17;;;;;;;20.52;88.59;96202.63;5001064;28;20840;-64
2021/07/28 09:37:02;;;;;;;6.53;6.03;;;;;;;20.48;88.24;96207.78;5011502;28;20463;-67
2021/07/28 09:39:34;;;;;;;8.33;6.57;;;;;;;20.61;88.37;96204.34;5008879;28;20461;-64
2021/07/28 09:42:09;;;;;;;6.17;5.67;;;;;;;20.57;88.64;96211.34;4991732;28;20420;-65
2021/07/28 09:44:35;;;;;;;6.77;5.90;;;;;;;20.68;87.30;96199.44;4991332;28;20427;-68
2021/07/28 09:47:03;;;;;;;6.37;5.77;;;;;;;20.72;87.19;96210.31;4991547;28;20417;-67
2021/07/28 09:49:29;;;;;;;6.30;5.80;;;;;;;20.88;87.51;96215.09;4991145;28;20186;-67
2021/07/28 09:51:54;;;;;;;7.10;5.97;;;;;;;21.00;85.73;96215.44;4991019;28;20944;-71
2021/07/28 09:54:20;;;;;;;5.73;5.23;;;;;;;20.92;85.90;96220.66;5008441;28;20198;-65
2021/07/28 09:56:48;;;;;;;6.90;6.30;;;;;;;20.97;86.75;96223.22;5002150;28;20244;-66
2021/07/28 09:59:14;;;;;;;6.27;5.67;;;;;;;21.18;86.43;96214.56;4991433;28;20224;-64
2021/07/28 10:01:42;;;;;;;6.83;5.60;;;;;;;21.16;85.56;96199.94;4996011;28;20428;-67
2021/07/28 10:04:10;;;;;;;6.40;5.80;;;;;;;21.22;86.17;96196.88;5009985;28;20600;-64
2021/07/28 10:06:40;;;;;;;5.90;5.40;;;;;;;21.50;83.33;96200.34;5012560;28;20816;-63
2021/07/28 10:09:17;;;;;;;5.90;5.30;;;;;;;20.74;83.29;96213.50;5014621;28;20803;-63
2021/07/28 10:11:48;;;;;;;5.60;5.10;;;;;;;20.79;83.96;96203.50;5003919;28;20555;-63
2021/07/28 10:14:20;;;;;;;5.53;5.00;;;;;;;20.60;84.82;96207.31;4994034;28;20918;-63
2021/07/28 10:16:47;;;;;;;6.53;5.93;;;;;;;20.61;86.22;96192.88;4994401;28;20468;-64
2021/07/28 10:19:14;;;;;;;5.70;5.20;;;;;;;20.95;86.61;96198.69;4994658;28;20953;-67
2021/07/28 10:21:39;;;;;;;6.30;5.70;;;;;;;20.90;84.88;96206.78;4993633;28;20903;-63
2021/07/28 10:24:06;;;;;;;5.80;5.30;;;;;;;21.01;83.10;96209.03;4994116;28;20436;-63
2021/07/28 10:26:36;;;;;;;5.40;4.90;;;;;;;21.14;79.64;96220.81;4984410;28;20178;-68
2021/07/28 10:29:02;;;;;;;6.50;4.50;;;;;;;21.09;79.02;96215.53;4975059;28;20884;-68
2021/07/28 10:31:43;;;;;;;6.93;5.20;;;;;;;20.72;81.94;96224.47;4973596;28;20472;-68
2021/07/28 10:34:23;;;;;;;5.40;5.00;;;;;;;20.89;81.05;96223.91;4976216;28;20223;-67
2021/07/28 10:36:49;;;;;;;4.97;4.57;;;;;;;20.93;82.63;96230.25;4994394;28;20474;-62
2021/07/28 10:39:52;;;;;;;6.27;4.97;;;;;;;21.05;81.12;96227.94;4994291;28;20412;-68
2021/07/28 10:42:30;;;;;;;7.37;5.10;;;;;;;21.07;82.00;96231.88;4934520;29;20784;-63
2021/07/28 10:45:05;;;;;;;5.07;4.67;;;;;;;21.19;81.12;96223.41;4987480;28;20503;-68
2021/07/28 10:47:39;;;;;;;5.80;5.30;;;;;;;21.40;81.72;96221.91;4974643;28;20420;-68
2021/07/28 10:50:30;;;;;;;4.67;4.27;;;;;;;21.47;82.32;96220.44;4974838;28;20880;-67
2021/07/28 10:52:57;;;;;;;6.43;5.30;;;;;;;21.67;82.20;96205.84;4974363;28;20436;-64
2021/07/28 10:55:22;;;;;;;5.53;5.03;;;;;;;22.00;80.98;96217.22;4978147;28;20457;-68
2021/07/28 10:57:54;;;;;;;5.50;4.57;;;;;;;22.18;78.57;96211.72;4992876;28;20471;-68
2021/07/28 11:00:37;;;;;;;5.83;5.13;;;;;;;22.10;77.39;96207.06;4994153;28;20618;-66
2021/07/28 11:03:05;;;;;;;6.40;4.90;;;;;;;22.22;77.29;96195.84;4993589;28;20420;-63
2021/07/28 11:05:34;;;;;;;5.07;4.60;;;;;;;22.24;77.00;96194.44;4987875;28;20472;-68
2021/07/28 11:08:05;;;;;;;5.43;4.93;;;;;;;22.15;76.30;96200.81;4974856;28;20812;-63
2021/07/28 11:10:38;;;;;;;5.33;4.93;;;;;;;22.13;75.88;96194.97;4974689;28;20410;-63
2021/07/28 11:13:14;;;;;;;8.40;5.10;;;;;;;21.91;76.97;96206.44;4974145;28;20436;-63
2021/07/28 11:15:41;;;;;;;5.37;4.97;;;;;;;21.86;78.13;96208.44;4974357;28;20469;-63
2021/07/28 11:18:07;;;;;;;5.23;4.70;;;;;;;21.68;78.51;96212.78;4974807;28;20410;-63
2021/07/28 11:20:32;;;;;;;6.23;5.30;;;;;;;21.80;76.71;96199.72;4981871;28;20432;-63
2021/07/28 11:23:36;;;;;;;5.90;5.40;;;;;;;22.18;77.34;96209.03;4993520;28;20178;-67
2021/07/28 11:26:12;;;;;;;5.37;4.87;;;;;;;22.19;77.93;96209.84;4994245;28;20176;-63
2021/07/28 11:28:37;;;;;;;5.20;4.70;;;;;;;22.26;76.47;96205.66;4988597;28;20508;-63
2021/07/28 11:31:05;;;;;;;6.40;5.40;;;;;;;22.32;74.22;96209.00;4974373;28;20520;-63
2021/07/28 11:33:32;;;;;;;5.37;4.87;;;;;;;22.46;72.04;96196.34;4976784;28;20197;-64